createdAt,value
2019-05-26T00:01:05.741Z,5.10
2019-05-26T00:03:37.163Z,5.67
2019-05-26T00:06:06.983Z,6.25
2019-05-26T00:08:36.938Z,4.87
2019-05-26T00:11:11.887Z,4.10
2019-05-26T00:13:43.038Z,6.60
2019-05-26T00:16:14.025Z,5.42
2019-05-26T00:18:45.120Z,4.97
2019-05-26T00:21:15.029Z,4.92
2019-05-26T00:23:44.859Z,5.10
2019-05-26T00:26:14.735Z,6.37
2019-05-26T00:28:44.425Z,5.67
2019-05-26T00:31:14.328Z,6.10
2019-05-26T00:33:44.291Z,6.33
2019-05-26T00:36:14.119Z,7.30
2019-05-26T00:38:44.261Z,6.05
2019-05-26T00:41:14.148Z,5.95
2019-05-26T00:43:44.035Z,9.00
2019-05-26T00:46:13.888Z,6.15
2019-05-26T00:48:43.920Z,7.75
2019-05-26T00:51:13.926Z,6.72
2019-05-26T00:53:43.814Z,9.23
2019-05-26T00:56:13.804Z,7.37
2019-05-26T00:58:43.732Z,6.70
2019-05-26T01:01:13.609Z,7.12
2019-05-26T01:03:43.517Z,6.67
2019-05-26T01:06:13.536Z,6.90
2019-05-26T01:08:43.380Z,7.30
2019-05-26T01:11:13.220Z,7.33
2019-05-26T01:13:43.066Z,6.75
2019-05-26T01:16:12.948Z,6.53
2019-05-26T01:18:42.788Z,6.33
2019-05-26T01:21:12.710Z,6.17
2019-05-26T01:23:42.591Z,6.90
2019-05-26T01:26:12.465Z,7.25
2019-05-26T01:28:42.347Z,5.75
2019-05-26T01:31:12.243Z,5.90
2019-05-26T01:33:42.152Z,6.78
2019-05-26T01:36:12.092Z,5.83
2019-05-26T01:38:42.946Z,5.30
2019-05-26T01:41:12.850Z,6.50
2019-05-26T01:43:42.663Z,5.80
2019-05-26T01:46:12.632Z,6.28
2019-05-26T01:48:42.454Z,5.83
2019-05-26T01:51:12.465Z,7.12
2019-05-26T01:53:42.451Z,6.17
2019-05-26T01:56:12.383Z,6.70
2019-05-26T01:58:42.190Z,6.90
2019-05-26T02:01:12.109Z,6.55
2019-05-26T02:03:41.915Z,7.28
2019-05-26T02:06:11.840Z,7.12
2019-05-26T02:08:42.191Z,5.15
2019-05-26T02:11:13.523Z,5.85
2019-05-26T02:13:43.383Z,5.25
2019-05-26T02:16:13.197Z,5.05
2019-05-26T02:18:43.033Z,5.20
2019-05-26T02:21:14.886Z,5.92
2019-05-26T02:23:44.369Z,5.37
2019-05-26T02:26:14.217Z,5.85
2019-05-26T02:28:44.019Z,5.78
2019-05-26T02:31:13.827Z,5.65
2019-05-26T02:33:43.845Z,4.65
2019-05-26T02:36:13.746Z,4.80
2019-05-26T02:38:59.722Z,4.97
2019-05-26T02:41:15.078Z,5.03
2019-05-26T02:43:45.151Z,5.62
2019-05-26T02:46:15.321Z,4.83
2019-05-26T02:48:45.499Z,5.05
2019-05-26T02:51:15.301Z,5.20
2019-05-26T02:53:45.088Z,5.90
2019-05-26T02:56:18.484Z,5.80
2019-05-26T02:58:49.254Z,8.33
2019-05-26T03:01:19.324Z,5.28
2019-05-26T03:03:50.226Z,5.42
2019-05-26T03:06:22.982Z,5.67
2019-05-26T03:08:54.324Z,5.20
2019-05-26T03:11:26.761Z,6.33
2019-05-26T03:13:59.547Z,5.33
2019-05-26T03:16:31.837Z,5.17
2019-05-26T03:19:04.775Z,4.50
2019-05-26T03:21:41.049Z,4.67
2019-05-26T03:24:12.465Z,3.98
2019-05-26T03:26:42.566Z,3.72
2019-05-26T03:29:12.381Z,4.42
2019-05-26T03:31:42.626Z,3.98
2019-05-26T03:34:15.540Z,4.95
2019-05-26T03:36:45.315Z,5.22
2019-05-26T03:39:17.024Z,4.58
2019-05-26T03:41:46.830Z,4.87
2019-05-26T03:44:18.860Z,4.55
2019-05-26T03:46:49.525Z,5.83
2019-05-26T03:49:20.585Z,5.33
2019-05-26T03:51:51.368Z,5.37
2019-05-26T03:54:21.572Z,23.85
2019-05-26T03:56:53.861Z,6.78
2019-05-26T03:59:23.664Z,5.20
2019-05-26T04:01:57.577Z,4.90
2019-05-26T04:04:25.386Z,6.83
2019-05-26T04:06:56.405Z,8.68
2019-05-26T04:09:27.456Z,4.85
2019-05-26T04:11:57.710Z,5.20
2019-05-26T04:14:27.578Z,5.62
2019-05-26T04:17:00.009Z,7.00
2019-05-26T04:19:29.947Z,6.60
2019-05-26T04:21:59.770Z,7.45
2019-05-26T04:24:30.994Z,5.03
2019-05-26T04:27:02.203Z,5.20
2019-05-26T04:29:32.032Z,7.12
2019-05-26T04:32:02.326Z,5.15
2019-05-26T04:34:33.519Z,4.95
2019-05-26T04:37:04.467Z,5.25
2019-05-26T04:39:34.319Z,7.58
2019-05-26T04:42:06.554Z,4.85
2019-05-26T04:44:39.103Z,5.57
2019-05-26T04:47:08.987Z,5.80
2019-05-26T04:49:41.581Z,7.30
2019-05-26T04:52:11.420Z,6.90
2019-05-26T04:54:52.867Z,7.40
2019-05-26T04:57:31.068Z,5.83
2019-05-26T05:00:00.894Z,6.25
2019-05-26T05:02:34.774Z,7.60
2019-05-26T05:05:02.117Z,6.20
2019-05-26T05:07:40.509Z,6.20
2019-05-26T05:10:13.800Z,8.78
2019-05-26T05:12:51.758Z,7.92
2019-05-26T05:15:26.019Z,6.25
2019-05-26T05:17:55.933Z,6.03
2019-05-26T05:20:25.675Z,6.37
2019-05-26T05:22:55.537Z,6.70
2019-05-26T05:25:25.407Z,6.92
2019-05-26T05:27:55.266Z,6.53
2019-05-26T05:30:25.420Z,7.37
2019-05-26T05:32:55.954Z,7.75
2019-05-26T05:35:28.412Z,7.05
2019-05-26T05:37:58.290Z,6.72
2019-05-26T05:40:28.139Z,8.23
2019-05-26T05:42:57.969Z,8.10
2019-05-26T05:45:27.801Z,8.70
2019-05-26T05:47:57.579Z,7.65
2019-05-26T05:50:27.412Z,8.13
2019-05-26T05:52:57.274Z,6.42
2019-05-26T05:55:27.466Z,6.90
2019-05-26T05:57:57.299Z,7.25
2019-05-26T06:00:27.219Z,7.08
2019-05-26T06:02:57.039Z,6.80
2019-05-26T06:05:26.981Z,6.80
2019-05-26T06:07:58.503Z,7.05
2019-05-26T06:10:28.573Z,6.92
2019-05-26T06:12:59.646Z,6.67
2019-05-26T06:15:29.536Z,6.65
2019-05-26T06:17:59.319Z,7.35
2019-05-26T06:20:29.171Z,7.05
2019-05-26T06:22:59.088Z,10.23
2019-05-26T06:25:29.171Z,7.80
2019-05-26T06:27:59.178Z,6.87
2019-05-26T06:30:29.219Z,8.15
2019-05-26T06:32:59.059Z,8.48
2019-05-26T06:35:32.466Z,8.35
2019-05-26T06:38:03.039Z,7.62
2019-05-26T06:40:32.888Z,7.53
2019-05-26T06:43:02.777Z,7.42
2019-05-26T06:45:32.703Z,7.62
2019-05-26T06:48:02.466Z,7.72
2019-05-26T06:50:35.117Z,7.85
2019-05-26T06:53:07.411Z,8.75
2019-05-26T06:55:37.281Z,7.72
2019-05-26T06:58:07.313Z,7.62
2019-05-26T07:00:41.844Z,7.28
2019-05-26T07:03:11.876Z,7.83
2019-05-26T07:05:41.807Z,10.32
2019-05-26T07:08:12.841Z,7.83
2019-05-26T07:10:53.363Z,6.50
2019-05-26T07:13:27.655Z,9.05
2019-05-26T07:15:57.723Z,6.25
2019-05-26T07:18:27.631Z,8.08
2019-05-26T07:20:57.485Z,6.45
2019-05-26T07:23:31.558Z,7.70
2019-05-26T07:26:01.791Z,6.15
2019-05-26T07:28:32.079Z,6.45
2019-05-26T07:31:01.947Z,6.58
2019-05-26T07:33:32.754Z,6.25
2019-05-26T07:36:02.725Z,6.50
2019-05-26T07:38:32.568Z,6.30
2019-05-26T07:41:02.364Z,6.97
2019-05-26T07:43:34.457Z,6.47
2019-05-26T07:46:07.361Z,5.75
2019-05-26T07:48:38.516Z,7.62
2019-05-26T07:51:08.358Z,7.40
2019-05-26T07:53:39.887Z,7.67
2019-05-26T07:56:12.764Z,6.97
2019-05-26T07:58:42.630Z,7.60
2019-05-26T08:01:12.390Z,7.87
2019-05-26T08:03:42.167Z,7.05
2019-05-26T08:06:11.906Z,7.30
2019-05-26T08:08:41.795Z,10.43
2019-05-26T08:11:18.439Z,6.17
2019-05-26T08:13:48.290Z,11.93
2019-05-26T08:16:18.110Z,5.70
2019-05-26T08:18:47.909Z,5.62
2019-05-26T08:21:17.666Z,7.55
2019-05-26T08:23:47.390Z,8.78
2019-05-26T08:26:17.141Z,7.85
2019-05-26T08:28:46.842Z,6.45
2019-05-26T08:31:16.637Z,6.00
2019-05-26T08:33:50.156Z,6.90
2019-05-26T08:36:19.889Z,6.05
2019-05-26T08:38:49.687Z,5.22
2019-05-26T08:41:19.491Z,6.12
2019-05-26T08:43:49.236Z,6.47
2019-05-26T08:46:19.007Z,6.20
2019-05-26T08:48:48.852Z,5.95
2019-05-26T08:51:18.750Z,5.25
2019-05-26T08:53:48.514Z,7.20
2019-05-26T08:56:18.390Z,6.40
2019-05-26T08:58:48.129Z,6.12
2019-05-26T09:01:17.789Z,5.92
2019-05-26T09:03:47.642Z,4.78
2019-05-26T09:06:17.377Z,4.72
2019-05-26T09:08:47.130Z,5.55
2019-05-26T09:11:16.902Z,6.45
2019-05-26T09:13:46.620Z,5.55
2019-05-26T09:16:16.478Z,9.23
2019-05-26T09:18:46.313Z,5.62
2019-05-26T09:21:16.081Z,6.35
2019-05-26T09:23:46.959Z,5.10
2019-05-26T09:26:16.587Z,6.47
2019-05-26T09:28:46.474Z,4.58
2019-05-26T09:31:16.636Z,6.22
2019-05-26T09:33:46.390Z,5.33
2019-05-26T09:36:16.304Z,5.97
2019-05-26T09:38:46.202Z,5.60
2019-05-26T09:41:15.989Z,5.67
2019-05-26T09:43:45.776Z,6.05
2019-05-26T09:46:15.495Z,5.85
2019-05-26T09:48:45.241Z,5.65
2019-05-26T09:51:15.042Z,5.80
2019-05-26T09:53:44.826Z,4.80
2019-05-26T09:56:14.604Z,5.22
2019-05-26T09:58:44.328Z,6.00
2019-05-26T10:01:14.177Z,5.15
2019-05-26T10:03:44.003Z,5.15
2019-05-26T10:06:13.755Z,4.20
2019-05-26T10:08:43.524Z,4.47
2019-05-26T10:11:13.298Z,4.90
2019-05-26T10:13:43.005Z,10.50
2019-05-26T10:16:14.445Z,7.87
2019-05-26T10:18:44.138Z,4.92
2019-05-26T10:21:14.003Z,5.22
2019-05-26T10:23:43.839Z,6.50
2019-05-26T10:26:13.592Z,5.80
2019-05-26T10:28:43.414Z,5.58
2019-05-26T10:31:22.652Z,5.47
2019-05-26T10:33:55.489Z,4.85
2019-05-26T10:36:30.686Z,4.60
2019-05-26T10:42:22.256Z,5.53
2019-05-26T10:44:52.086Z,5.00
2019-05-26T10:47:21.827Z,5.08
2019-05-26T10:49:51.610Z,4.83
2019-05-26T10:52:21.328Z,4.30
2019-05-26T10:54:51.072Z,3.55
2019-05-26T10:57:20.874Z,4.40
2019-05-26T10:59:50.715Z,4.87
2019-05-26T11:02:20.654Z,4.70
2019-05-26T11:04:50.336Z,4.37
2019-05-26T11:07:20.163Z,4.40
2019-05-26T11:09:50.047Z,4.72
2019-05-26T11:12:19.854Z,4.97
2019-05-26T11:14:49.640Z,4.95
2019-05-26T11:17:19.319Z,3.80
2019-05-26T11:19:49.055Z,3.83
2019-05-26T11:22:18.818Z,4.05
2019-05-26T11:24:48.713Z,4.97
2019-05-26T11:27:18.470Z,4.55
2019-05-26T11:29:48.599Z,3.87
2019-05-26T11:32:18.281Z,6.95
2019-05-26T11:35:00.701Z,4.30
2019-05-26T11:37:19.560Z,3.62
2019-05-26T11:39:49.292Z,3.80
2019-05-26T11:42:20.022Z,4.70
2019-05-26T11:44:49.910Z,3.72
2019-05-26T11:47:19.666Z,4.75
2019-05-26T11:49:49.521Z,3.60
2019-05-26T11:52:20.379Z,3.10
2019-05-26T11:54:50.236Z,3.75
2019-05-26T11:57:20.078Z,3.33
2019-05-26T11:59:49.861Z,3.40
2019-05-26T12:02:19.622Z,3.20
2019-05-26T12:04:49.432Z,4.62
2019-05-26T12:07:19.235Z,4.47
2019-05-26T12:09:49.034Z,3.50
2019-05-26T12:12:18.773Z,3.90
2019-05-26T12:14:48.592Z,3.85
2019-05-26T12:17:18.483Z,3.60
2019-05-26T12:19:48.264Z,4.90
2019-05-26T12:22:18.126Z,3.95
2019-05-26T12:24:47.927Z,3.90
2019-05-26T12:27:17.740Z,4.30
2019-05-26T12:29:47.632Z,4.25
2019-05-26T12:32:17.466Z,5.03
2019-05-26T12:34:47.405Z,3.85
2019-05-26T12:37:17.213Z,9.48
2019-05-26T12:39:47.006Z,8.58
2019-05-26T12:42:17.211Z,4.33
2019-05-26T12:44:49.915Z,4.97
2019-05-26T12:47:19.534Z,4.55
2019-05-26T12:49:49.339Z,5.10
2019-05-26T12:52:19.107Z,5.62
2019-05-26T12:54:48.949Z,4.80
2019-05-26T12:57:18.720Z,4.12
2019-05-26T12:59:48.436Z,4.58
2019-05-26T13:02:18.205Z,4.25
2019-05-26T13:04:48.042Z,4.80
2019-05-26T13:07:17.721Z,4.65
2019-05-26T13:09:47.570Z,4.55
2019-05-26T13:12:17.322Z,4.25
2019-05-26T13:14:47.041Z,6.37
2019-05-26T13:17:16.928Z,6.03
2019-05-26T13:19:46.814Z,4.75
2019-05-26T13:22:16.614Z,5.72
2019-05-26T13:24:46.486Z,4.58
2019-05-26T13:27:16.305Z,3.80
2019-05-26T13:29:46.118Z,3.70
2019-05-26T13:32:15.848Z,3.55
2019-05-26T13:34:45.692Z,4.22
2019-05-26T13:37:15.469Z,4.22
2019-05-26T13:39:45.232Z,3.90
2019-05-26T13:42:14.918Z,4.00
2019-05-26T13:44:44.731Z,3.95
2019-05-26T13:47:25.799Z,3.80
2019-05-26T13:49:45.947Z,3.40
2019-05-26T13:52:15.743Z,4.97
2019-05-26T13:54:45.523Z,4.67
2019-05-26T13:57:15.247Z,4.47
2019-05-26T13:59:45.135Z,3.95
2019-05-26T14:02:14.923Z,3.92
2019-05-26T14:04:44.618Z,6.78
2019-05-26T14:07:14.372Z,4.35
2019-05-26T14:09:44.212Z,4.72
2019-05-26T14:12:13.974Z,5.47
2019-05-26T14:14:43.833Z,5.25
2019-05-26T14:17:15.757Z,6.90
2019-05-26T14:19:48.587Z,8.08
2019-05-26T14:22:18.468Z,5.87
2019-05-26T14:24:53.741Z,5.42
2019-05-26T14:27:19.756Z,5.37
2019-05-26T14:29:49.692Z,5.35
2019-05-26T14:32:19.639Z,5.42
2019-05-26T14:34:50.497Z,6.22
2019-05-26T14:37:20.272Z,5.78
2019-05-26T14:39:50.241Z,5.10
2019-05-26T14:42:20.001Z,10.18
2019-05-26T14:44:49.786Z,8.15
2019-05-26T14:47:19.680Z,9.68
2019-05-26T14:49:49.426Z,9.68
2019-05-26T14:52:19.272Z,14.05
2019-05-26T14:54:49.115Z,9.85
2019-05-26T14:57:18.987Z,8.40
2019-05-26T14:59:48.853Z,7.28
2019-05-26T15:02:18.817Z,8.20
2019-05-26T15:04:48.646Z,7.40
2019-05-26T15:07:18.529Z,6.75
2019-05-26T15:09:48.458Z,5.70
2019-05-26T15:12:18.288Z,7.50
2019-05-26T15:14:48.121Z,5.55
2019-05-26T15:17:17.900Z,5.87
2019-05-26T15:19:47.687Z,5.78
2019-05-26T15:22:17.717Z,6.33
2019-05-26T15:24:47.518Z,6.00
2019-05-26T15:27:17.426Z,6.45
2019-05-26T15:29:47.234Z,5.42
2019-05-26T15:32:17.667Z,5.15
2019-05-26T15:34:47.528Z,5.03
2019-05-26T15:37:17.315Z,4.45
2019-05-26T15:39:47.230Z,4.35
2019-05-26T15:42:17.026Z,6.33
2019-05-26T15:44:46.898Z,6.03
2019-05-26T15:47:16.720Z,6.90
2019-05-26T15:49:46.604Z,7.42
2019-05-26T15:52:16.365Z,7.72
2019-05-26T15:54:46.184Z,6.12
2019-05-26T15:57:15.963Z,5.58
2019-05-26T15:59:45.791Z,7.10
2019-05-26T16:02:15.674Z,9.45
2019-05-26T16:04:45.986Z,10.13
2019-05-26T16:07:18.485Z,9.98
2019-05-26T16:09:48.651Z,12.30
2019-05-26T16:12:20.960Z,10.65
2019-05-26T16:14:50.999Z,6.92
2019-05-26T16:17:20.967Z,6.83
2019-05-26T16:19:50.931Z,7.92
2019-05-26T16:22:21.282Z,6.45
2019-05-26T16:24:51.875Z,6.60
2019-05-26T16:27:23.583Z,6.65
2019-05-26T16:29:54.239Z,7.58
2019-05-26T16:32:24.064Z,10.15
2019-05-26T16:34:53.948Z,10.70
2019-05-26T16:37:23.887Z,7.53
2019-05-26T16:39:55.941Z,10.32
2019-05-26T16:42:25.290Z,10.72
2019-05-26T16:44:57.591Z,9.65
2019-05-26T16:47:27.662Z,10.05
2019-05-26T16:49:57.701Z,9.88
2019-05-26T16:52:27.746Z,17.12
2019-05-26T16:54:57.689Z,15.85
2019-05-26T16:57:27.636Z,10.63
2019-05-26T16:59:57.642Z,7.50
2019-05-26T17:02:27.628Z,7.42
2019-05-26T17:04:57.478Z,7.85
2019-05-26T17:07:27.375Z,10.35
2019-05-26T17:09:57.268Z,12.05
2019-05-26T17:12:27.154Z,9.55
2019-05-26T17:14:57.193Z,10.20
2019-05-26T17:17:27.157Z,10.08
2019-05-26T17:19:57.066Z,9.55
2019-05-26T17:22:26.990Z,8.98
2019-05-26T17:24:59.828Z,9.78
2019-05-26T17:27:28.411Z,9.65
2019-05-26T17:29:58.298Z,7.75
2019-05-26T17:32:28.238Z,7.00
2019-05-26T17:34:58.141Z,8.98
2019-05-26T17:37:28.013Z,7.65
2019-05-26T17:39:57.886Z,7.33
2019-05-26T17:42:27.726Z,11.22
2019-05-26T17:44:57.525Z,9.90
2019-05-26T17:47:30.380Z,14.18
2019-05-26T17:49:58.958Z,10.35
2019-05-26T17:52:28.762Z,9.98
2019-05-26T17:54:58.551Z,7.62
2019-05-26T17:57:28.330Z,11.45
2019-05-26T17:59:58.059Z,8.08
2019-05-26T18:02:27.952Z,7.85
2019-05-26T18:04:58.000Z,10.88
2019-05-26T18:07:27.874Z,8.53
2019-05-26T18:09:57.661Z,8.58
2019-05-26T18:12:27.517Z,8.68
2019-05-26T18:14:57.334Z,9.20
2019-05-26T18:17:27.051Z,8.10
2019-05-26T18:19:56.920Z,10.23
2019-05-26T18:22:26.740Z,9.43
2019-05-26T18:24:58.587Z,9.05
2019-05-26T18:27:28.161Z,8.68
2019-05-26T18:29:57.888Z,9.90
2019-05-26T18:32:27.722Z,8.45
2019-05-26T18:34:57.445Z,7.85
2019-05-26T18:37:27.234Z,10.48
2019-05-26T18:39:57.091Z,13.13
2019-05-26T18:42:26.909Z,13.15
2019-05-26T18:44:56.739Z,14.55
2019-05-26T18:47:26.523Z,12.20
2019-05-26T18:49:56.316Z,9.20
2019-05-26T18:52:26.136Z,8.38
2019-05-26T18:54:55.883Z,7.87
2019-05-26T18:57:25.690Z,10.95
2019-05-26T18:59:55.528Z,9.40
2019-05-26T19:02:25.380Z,11.97
2019-05-26T19:04:55.519Z,9.23
2019-05-26T19:07:25.463Z,9.68
2019-05-26T19:09:55.254Z,9.80
2019-05-26T19:12:25.145Z,12.00
2019-05-26T19:14:56.362Z,10.25
2019-05-26T19:17:26.220Z,8.63
2019-05-26T19:19:56.033Z,7.90
2019-05-26T19:22:25.868Z,7.33
2019-05-26T19:24:58.000Z,9.55
2019-05-26T19:27:27.943Z,8.65
2019-05-26T19:29:57.663Z,11.35
2019-05-26T19:32:27.454Z,15.90
2019-05-26T19:34:57.291Z,15.08
2019-05-26T19:37:27.151Z,12.28
2019-05-26T19:39:57.049Z,14.28
2019-05-26T19:42:26.863Z,13.22
2019-05-26T19:44:56.727Z,14.28
2019-05-26T19:47:26.627Z,10.00
2019-05-26T19:49:56.562Z,8.35
2019-05-26T19:52:26.372Z,10.23
2019-05-26T19:54:56.117Z,15.90
2019-05-26T19:57:25.949Z,15.80
2019-05-26T19:59:55.747Z,19.95
2019-05-26T20:02:25.692Z,11.33
2019-05-26T20:04:55.476Z,13.50
2019-05-26T20:07:25.332Z,9.55
2019-05-26T20:09:55.199Z,9.73
2019-05-26T20:12:24.954Z,8.98
2019-05-26T20:14:54.850Z,8.60
2019-05-26T20:17:24.640Z,7.65
2019-05-26T20:19:54.443Z,8.35
2019-05-26T20:22:24.683Z,8.08
2019-05-26T20:24:54.622Z,11.75
2019-05-26T20:27:24.371Z,10.63
2019-05-26T20:29:54.345Z,12.63
2019-05-26T20:32:24.190Z,10.93
2019-05-26T20:34:53.983Z,9.35
2019-05-26T20:37:23.758Z,8.33
2019-05-26T20:39:53.496Z,8.85
2019-05-26T20:42:23.329Z,8.40
2019-05-26T20:44:53.087Z,9.00
2019-05-26T20:47:22.820Z,7.75
2019-05-26T20:49:52.653Z,7.47
2019-05-26T20:52:22.443Z,7.22
2019-05-26T20:54:52.371Z,7.42
2019-05-26T20:57:22.173Z,8.45
2019-05-26T20:59:52.035Z,7.85
2019-05-26T21:02:21.862Z,9.88
2019-05-26T21:04:51.664Z,9.15
2019-05-26T21:07:21.543Z,8.48
2019-05-26T21:09:51.381Z,8.45
2019-05-26T21:12:21.240Z,9.55
2019-05-26T21:14:51.002Z,10.63
2019-05-26T21:17:20.676Z,10.38
2019-05-26T21:19:50.457Z,7.97
2019-05-26T21:22:20.307Z,7.03
2019-05-26T21:24:50.048Z,6.87
2019-05-26T21:27:19.818Z,6.72
2019-05-26T21:30:07.198Z,9.15
2019-05-26T21:32:37.000Z,13.43
2019-05-26T21:35:06.747Z,11.45
2019-05-26T21:37:36.489Z,8.18
2019-05-26T21:40:06.939Z,8.08
2019-05-26T21:42:36.730Z,8.00
2019-05-26T21:45:07.118Z,7.72
2019-05-26T21:47:36.927Z,7.28
2019-05-26T21:50:07.123Z,6.97
2019-05-26T21:52:37.050Z,7.70
2019-05-26T21:55:08.139Z,6.65
2019-05-26T21:57:37.887Z,6.40
2019-05-26T22:00:10.079Z,6.50
2019-05-26T22:02:39.907Z,6.87
2019-05-26T22:05:10.563Z,6.87
2019-05-26T22:07:40.675Z,7.35
2019-05-26T22:10:10.639Z,7.25
2019-05-26T22:12:40.525Z,6.85
2019-05-26T22:15:11.615Z,9.30
2019-05-26T22:17:41.408Z,7.10
2019-05-26T22:20:11.459Z,7.47
2019-05-26T22:22:41.261Z,6.47
2019-05-26T22:25:11.449Z,7.60
2019-05-26T22:27:41.213Z,7.40
2019-05-26T22:30:11.738Z,8.43
2019-05-26T22:32:41.575Z,8.10
2019-05-26T22:35:11.618Z,8.83
2019-05-26T22:37:41.430Z,7.25
2019-05-26T22:40:11.507Z,8.03
2019-05-26T22:42:41.210Z,7.83
2019-05-26T22:45:11.422Z,8.48
2019-05-26T22:47:41.196Z,9.88
2019-05-26T22:50:11.182Z,10.80
2019-05-26T22:52:40.983Z,9.38
2019-05-26T22:55:10.841Z,8.35
2019-05-26T22:57:40.662Z,9.15
2019-05-26T23:00:11.456Z,13.25
2019-05-26T23:02:41.426Z,8.08
2019-05-26T23:05:11.527Z,8.68
2019-05-26T23:07:41.401Z,8.45
2019-05-26T23:10:11.387Z,8.13
2019-05-26T23:12:41.224Z,8.38
2019-05-26T23:15:12.316Z,9.18
2019-05-26T23:17:42.056Z,9.25
2019-05-26T23:20:12.002Z,8.03
2019-05-26T23:22:41.782Z,9.20
2019-05-26T23:25:12.296Z,8.40
2019-05-26T23:27:42.106Z,8.20
2019-05-26T23:30:12.754Z,8.03
2019-05-26T23:32:42.526Z,8.93
2019-05-26T23:35:12.529Z,10.95
2019-05-26T23:37:42.448Z,8.68
2019-05-26T23:40:12.999Z,8.13
2019-05-26T23:42:42.875Z,9.58
2019-05-26T23:45:13.682Z,8.85
2019-05-26T23:47:43.454Z,7.50
2019-05-26T23:50:13.866Z,8.35
2019-05-26T23:52:43.800Z,8.50
2019-05-26T23:55:13.839Z,9.90
2019-05-26T23:57:43.592Z,8.03
